4Y4 weather

Lakes of the North Airport
Gaylord, Michigan, United States

Public forecast

Using degrees Fahrenheit for public forecast. Weather courtesy of forecast.io.

METAR (pilot weather report)

Closest report is Gaylord Regional Airport, 9.5 nm (17.6 km) NE. Retrieved 2019/06/20 22:53 UTC (13 minutes ago):

KGLR 202253Z AUTO 04007KT 10SM SCT060 19/06 A2979 RMK AO2 SLP088 T01940061

TAF (pilot weather forecast)

Closest forecast is Cherry Capital Airport, 31.8 nm (58.8 km) WSW. Retrieved 2019/06/20 18:24 UTC (5 hours ago):

TAF KTVC 201723Z 2018/2118 03009KT P6SM SCT040 BKN200 FM202100 01009KT P6SM FEW050 SCT250 FM210200 VRB03KT P6SM SCT250 FM211700 01005KT P6SM FEW070